Time;durP1;ratioP1;P1;durP2;ratioP2;P2;SDS_P1;SDS_P2;PMS_P1;PMS_P2;Temp;Humidity;BMP_temperature;BMP_pressure;BME280_temperature;BME280_humidity;BME280_pressure;Samples;Min_cycle;Max_cycle;Signal;HPM_P1;HPM_P2
2024/01/27 00:03:39;;;;;;;;;;;2.50;99.90;;;;;;4925232;29;19923;-96
2024/01/27 00:06:08;;;;;;;;;;;2.80;99.90;;;;;;4927240;29;19982;-96
2024/01/27 00:08:42;;;;;;;;;;;4.00;99.90;;;;;;4925756;29;19923;-95
2024/01/27 00:11:08;;;;;;;;;;;2.70;99.90;;;;;;4925605;29;19926;-95
2024/01/27 00:13:34;;;;;;;;;;;2.80;99.90;;;;;;4929142;29;19992;-96
2024/01/27 00:16:27;;;;;;;;;;;2.60;99.90;;;;;;4927374;29;19917;-95
2024/01/27 00:18:56;;;;;;;;;;;1.60;99.90;;;;;;4925923;29;19922;-94
2024/01/27 00:21:30;;;;;;;;;;;3.10;99.90;;;;;;4928940;29;19922;-95
2024/01/27 00:24:00;;;;;;;;;;;3.00;99.90;;;;;;4930140;29;19933;-95
2024/01/27 00:26:26;;;;;;;;;;;2.60;99.90;;;;;;4929898;29;19926;-95
2024/01/27 00:28:52;;;;;;;;;;;2.50;99.90;;;;;;4930513;29;20331;-95
2024/01/27 00:31:21;;;;;;;;;;;2.50;99.90;;;;;;4930521;29;19922;-95
2024/01/27 00:33:50;;;;;;;;;;;4.00;99.90;;;;;;4930314;29;19933;-94
2024/01/27 00:36:22;;;;;;;;;;;2.70;99.90;;;;;;4927734;29;19926;-95
2024/01/27 00:38:56;;;;;;;;;;;3.20;99.90;;;;;;4928826;29;19923;-96
2024/01/27 00:41:22;;;;;;;;;;;2.90;99.90;;;;;;4936444;29;19923;-94
2024/01/27 00:43:55;;;;;;;;;;;1.50;99.90;;;;;;4941881;29;19986;-95
2024/01/27 00:46:24;;;;;;;;;;;2.90;99.90;;;;;;4929556;29;19926;-95
2024/01/27 00:48:53;;;;;;;;;;;2.80;99.90;;;;;;4930473;29;19982;-95
2024/01/27 00:51:25;;;;;;;;;;;1.20;99.90;;;;;;4928251;29;19923;-94
2024/01/27 00:53:53;;;;;;;;;;;3.00;99.90;;;;;;4934684;29;19973;-95
2024/01/27 00:56:22;;;;;;;;;;;2.80;99.90;;;;;;4932596;29;19923;-95
2024/01/27 00:59:06;;;;;;;;;;;1.10;99.90;;;;;;4928229;23;19934;-94
2024/01/27 01:02:12;;;;;;;;;;;2.40;99.90;;;;;;4907798;29;19927;-96
2024/01/27 01:04:42;;;;;;;;;;;2.10;99.90;;;;;;4906926;29;20331;-94
2024/01/27 01:07:14;;;;;;;;;;;2.90;99.90;;;;;;4894095;29;19927;-95
2024/01/27 01:12:15;;;;;;;;;;;2.00;99.90;;;;;;4958437;23;19994;-94
2024/01/27 01:18:07;;;;;;;;;;;1.80;99.90;;;;;;4934363;29;19933;-95
2024/01/27 01:21:13;;;;;;;;;;;2.40;99.90;;;;;;4916723;29;20017;-94
2024/01/27 01:24:08;;;;;;;;;;;3.00;99.90;;;;;;4916345;29;19927;-95
2024/01/27 01:26:34;;;;;;;;;;;1.90;99.90;;;;;;4915810;29;19929;-95
2024/01/27 01:45:18;;;;;;;;;;;2.60;99.90;;;;;;5257064;23;19922;-94
2024/01/27 01:47:51;;;;;;;;;;;2.40;99.90;;;;;;4916053;29;19931;-94
2024/01/27 01:50:45;;;;;;;;;;;2.80;99.90;;;;;;4941636;29;19907;-95
2024/01/27 01:53:15;;;;;;;;;;;3.10;99.90;;;;;;4917012;29;19934;-94
2024/01/27 01:55:49;;;;;;;;;;;2.60;99.90;;;;;;4915419;29;19914;-94
2024/01/27 01:58:25;;;;;;;;;;;2.80;99.90;;;;;;4933136;29;20352;-95
2024/01/27 02:03:34;;;;;;;;;;;2.10;99.90;;;;;;4934505;23;19922;-96
2024/01/27 02:09:02;;;;;;;;;;;3.50;99.90;;;;;;4959144;23;19938;-93
2024/01/27 02:11:28;;;;;;;;;;;1.30;99.90;;;;;;4940594;29;19955;-94
2024/01/27 02:17:16;;;;;;;;;;;1.40;99.90;;;;;;5531171;23;20258;-95
2024/01/27 02:19:42;;;;;;;;;;;3.20;99.90;;;;;;4961028;28;19907;-93
2024/01/27 02:22:13;;;;;;;;;;;2.40;99.90;;;;;;4944070;29;19914;-95
2024/01/27 02:24:42;;;;;;;;;;;2.40;99.90;;;;;;4944533;29;19934;-94
2024/01/27 02:30:44;;;;;;;;;;;1.00;99.90;;;;;;4962082;23;19917;-95
2024/01/27 02:33:20;;;;;;;;;;;1.00;99.90;;;;;;4949997;23;19978;-94
2024/01/27 02:36:08;;;;;;;;;;;1.60;99.90;;;;;;4943129;23;19929;-95
2024/01/27 02:38:39;;;;;;;;;;;1.40;99.90;;;;;;5060889;23;19947;31
2024/01/27 02:41:05;;;;;;;;;;;2.00;99.90;;;;;;4930675;29;19930;-95
2024/01/27 02:43:34;;;;;;;;;;;1.80;99.90;;;;;;4928541;23;19934;-94
2024/01/27 02:46:38;;;;;;;;;;;3.40;99.90;;;;;;4955744;29;19922;-96
2024/01/27 02:52:35;;;;;;;;;;;2.00;99.90;;;;;;4868668;29;19924;-94
2024/01/27 02:55:11;;;;;;;;;;;2.00;99.90;;;;;;4876563;29;19924;-96
2024/01/27 02:57:47;;;;;;;;;;;2.90;99.90;;;;;;4951301;23;19986;-94
2024/01/27 03:00:17;;;;;;;;;;;1.00;99.90;;;;;;4948528;23;20021;-96
2024/01/27 03:03:24;;;;;;;;;;;1.40;99.90;;;;;;4934167;29;19926;-94
2024/01/27 03:15:29;;;;;;;;;;;2.50;99.90;;;;;;5087350;23;19922;-95
2024/01/27 03:17:57;;;;;;;;;;;1.30;99.90;;;;;;4903470;29;19930;-95
2024/01/27 03:23:42;;;;;;;;;;;1.80;99.90;;;;;;4932622;29;20352;-94
2024/01/27 03:26:16;;;;;;;;;;;1.60;99.90;;;;;;4910868;29;19913;-95
2024/01/27 03:28:42;;;;;;;;;;;1.50;99.90;;;;;;4908155;29;19923;-95
2024/01/27 03:31:11;;;;;;;;;;;2.20;99.90;;;;;;4907690;29;19970;-95
2024/01/27 03:33:43;;;;;;;;;;;1.90;99.90;;;;;;4906804;29;20067;-95
2024/01/27 03:36:15;;;;;;;;;;;1.90;99.90;;;;;;4905115;29;19927;-96
2024/01/27 03:38:45;;;;;;;;;;;0.40;99.90;;;;;;4906174;29;19923;-95
2024/01/27 03:41:14;;;;;;;;;;;1.80;99.90;;;;;;4904236;29;19923;-94
2024/01/27 03:43:46;;;;;;;;;;;2.00;99.90;;;;;;4905082;29;19927;-95
2024/01/27 03:46:17;;;;;;;;;;;1.70;99.90;;;;;;4903737;29;19923;-94
2024/01/27 03:48:49;;;;;;;;;;;2.40;99.90;;;;;;4904208;29;19923;-95
2024/01/27 03:54:55;;;;;;;;;;;2.80;99.90;;;;;;4845088;29;19919;-95
2024/01/27 04:02:56;;;;;;;;;;;1.00;99.90;;;;;;4929111;23;20013;-94
2024/01/27 04:05:25;;;;;;;;;;;1.90;99.90;;;;;;4922774;29;20022;-95
2024/01/27 04:10:28;;;;;;;;;;;1.80;99.90;;;;;;4936421;29;19923;-94
2024/01/27 04:12:56;;;;;;;;;;;1.60;99.90;;;;;;4925599;29;20378;-94
2024/01/27 04:18:44;;;;;;;;;;;0.90;99.90;;;;;;5465623;23;19969;-96
2024/01/27 04:21:10;;;;;;;;;;;1.40;99.90;;;;;;4921428;29;19927;-95
2024/01/27 04:23:45;;;;;;;;;;;1.50;99.90;;;;;;4922163;29;19919;-95
2024/01/27 04:26:16;;;;;;;;;;;3.00;99.90;;;;;;4922285;29;19934;-95
2024/01/27 04:28:48;;;;;;;;;;;1.40;99.90;;;;;;4922027;29;19926;-95
2024/01/27 04:31:17;;;;;;;;;;;1.70;99.90;;;;;;4922233;29;20029;-94
2024/01/27 04:33:45;;;;;;;;;;;1.70;99.90;;;;;;4922629;29;20020;-94
2024/01/27 04:36:14;;;;;;;;;;;1.00;99.90;;;;;;4942210;23;20062;-94
2024/01/27 04:38:43;;;;;;;;;;;1.20;99.90;;;;;;4943219;29;19929;-94
2024/01/27 04:43:37;;;;;;;;;;;1.60;99.90;;;;;;4929919;29;19926;-94
2024/01/27 04:46:04;;;;;;;;;;;2.30;99.90;;;;;;4919183;29;20013;-95
2024/01/27 04:48:29;;;;;;;;;;;1.50;99.90;;;;;;4913350;29;19982;-94
2024/01/27 04:50:57;;;;;;;;;;;3.30;99.90;;;;;;4908956;29;19927;-95
2024/01/27 04:53:26;;;;;;;;;;;1.70;99.90;;;;;;4907198;29;19969;-95
2024/01/27 04:55:58;;;;;;;;;;;1.10;99.90;;;;;;4905493;29;19938;-96
2024/01/27 04:58:29;;;;;;;;;;;1.90;99.90;;;;;;4905209;29;19924;-94
2024/01/27 05:01:00;;;;;;;;;;;2.20;99.90;;;;;;4904799;29;20335;-95
2024/01/27 05:03:32;;;;;;;;;;;1.60;99.90;;;;;;4904829;29;19929;-94
2024/01/27 05:06:01;;;;;;;;;;;2.80;99.90;;;;;;4905631;29;19947;-94
2024/01/27 05:08:32;;;;;;;;;;;2.60;99.90;;;;;;4905446;29;19923;-95
2024/01/27 05:11:00;;;;;;;;;;;1.40;99.90;;;;;;4905157;29;19930;-95
2024/01/27 05:13:32;;;;;;;;;;;2.80;99.90;;;;;;4905249;29;20014;-94
2024/01/27 05:16:04;;;;;;;;;;;1.60;99.90;;;;;;4906275;29;20399;-94
2024/01/27 05:18:33;;;;;;;;;;;1.40;99.90;;;;;;4909819;29;19923;-93
2024/01/27 05:21:04;;;;;;;;;;;2.30;99.90;;;;;;4921772;29;19926;-94
2024/01/27 05:23:37;;;;;;;;;;;3.10;99.90;;;;;;4908388;29;19923;-94
2024/01/27 05:26:06;;;;;;;;;;;1.70;99.90;;;;;;4905338;29;20010;-94
2024/01/27 05:31:43;;;;;;;;;;;1.50;99.90;;;;;;5133425;23;20036;-94
2024/01/27 05:34:10;;;;;;;;;;;0.60;99.90;;;;;;4866104;29;19975;-93
2024/01/27 05:36:42;;;;;;;;;;;2.50;99.90;;;;;;4867307;29;19924;-96
2024/01/27 05:39:14;;;;;;;;;;;1.60;99.90;;;;;;4867326;29;19927;-95
2024/01/27 05:41:45;;;;;;;;;;;2.00;99.90;;;;;;4866841;29;20015;-94
2024/01/27 05:44:13;;;;;;;;;;;1.60;99.90;;;;;;4867101;29;20364;-94
2024/01/27 05:46:48;;;;;;;;;;;2.60;99.90;;;;;;4867204;29;19987;-94
2024/01/27 05:49:14;;;;;;;;;;;0.50;99.90;;;;;;4867322;29;19962;-94
2024/01/27 05:51:43;;;;;;;;;;;1.80;99.90;;;;;;4866786;29;19931;-96
2024/01/27 05:54:16;;;;;;;;;;;1.80;99.90;;;;;;4867087;29;19924;-94
2024/01/27 05:56:47;;;;;;;;;;;1.70;99.90;;;;;;4866892;29;19932;-94
2024/01/27 05:59:18;;;;;;;;;;;1.00;99.90;;;;;;4867617;29;20365;-95
2024/01/27 06:01:47;;;;;;;;;;;1.60;99.90;;;;;;4867782;29;19924;-94
2024/01/27 06:04:19;;;;;;;;;;;2.00;99.90;;;;;;4866317;29;19963;-95
2024/01/27 06:06:51;;;;;;;;;;;1.70;99.90;;;;;;4866761;29;19931;-94
2024/01/27 06:09:22;;;;;;;;;;;1.70;99.90;;;;;;4868670;29;20330;-94
2024/01/27 06:12:03;;;;;;;;;;;0.80;99.90;;;;;;4868334;29;19907;-96
2024/01/27 06:14:37;;;;;;;;;;;1.40;99.90;;;;;;4881198;23;19931;-94
2024/01/27 06:27:51;;;;;;;;;;;1.50;99.90;;;;;;4951570;29;19922;-95
2024/01/27 06:30:18;;;;;;;;;;;1.40;99.90;;;;;;4930361;29;19926;-94
2024/01/27 06:32:46;;;;;;;;;;;1.30;99.90;;;;;;4924314;29;19926;-94
2024/01/27 06:35:18;;;;;;;;;;;2.50;99.90;;;;;;4923659;29;20378;-95
2024/01/27 06:37:47;;;;;;;;;;;2.90;99.90;;;;;;4924865;29;19922;-94
2024/01/27 06:40:18;;;;;;;;;;;1.30;99.90;;;;;;4924420;29;19926;-95
2024/01/27 06:42:50;;;;;;;;;;;2.70;99.90;;;;;;4924213;29;20013;-94
2024/01/27 06:45:19;;;;;;;;;;;1.30;99.90;;;;;;4923875;29;19923;-94
2024/01/27 06:47:48;;;;;;;;;;;1.20;99.90;;;;;;4922160;29;19929;-94
2024/01/27 06:50:20;;;;;;;;;;;0.40;99.90;;;;;;4922106;29;19923;-94
2024/01/27 06:52:52;;;;;;;;;;;1.60;99.90;;;;;;4923511;29;19977;-94
2024/01/27 06:55:23;;;;;;;;;;;1.30;99.90;;;;;;4922652;29;19926;-94
2024/01/27 06:57:52;;;;;;;;;;;1.20;99.90;;;;;;4910513;29;19922;-93
2024/01/27 07:00:18;;;;;;;;;;;0.80;99.90;;;;;;4943750;23;19926;-93
2024/01/27 07:02:57;;;;;;;;;;;1.20;99.90;;;;;;4942230;29;19977;-93
2024/01/27 07:05:22;;;;;;;;;;;1.50;99.90;;;;;;4949342;23;19929;-94
2024/01/27 07:08:29;;;;;;;;;;;1.20;99.90;;;;;;4939004;23;19926;-90
2024/01/27 07:11:42;;;;;;;;;;;2.30;99.90;;;;;;4958688;29;19922;-88
2024/01/27 07:14:07;;;;;;;;;;;1.30;99.90;;;;;;4937992;29;20009;-86
2024/01/27 07:16:34;;;;;;;;;;;3.00;99.90;;;;;;4948539;29;19965;-86
2024/01/27 07:19:03;;;;;;;;;;;1.20;99.90;;;;;;4941155;29;19929;-89
2024/01/27 07:21:32;;;;;;;;;;;2.60;99.90;;;;;;4939549;29;19929;-87
2024/01/27 07:24:06;;;;;;;;;;;1.40;99.90;;;;;;4937716;29;19965;-88
2024/01/27 07:26:44;;;;;;;;;;;2.70;99.90;;;;;;4938858;29;20285;-88
2024/01/27 07:29:20;;;;;;;;;;;1.20;99.90;;;;;;4939696;29;20021;-91
2024/01/27 07:31:45;;;;;;;;;;;1.20;99.90;;;;;;4941731;29;19929;-85
2024/01/27 07:34:11;;;;;;;;;;;1.00;99.90;;;;;;4958827;28;20020;-87
2024/01/27 07:36:43;;;;;;;;;;;1.90;99.90;;;;;;4939457;29;19930;-87
2024/01/27 07:39:20;;;;;;;;;;;2.50;99.90;;;;;;4939419;29;20374;-88
2024/01/27 07:41:46;;;;;;;;;;;1.30;99.90;;;;;;4941536;29;20342;-88
2024/01/27 07:44:18;;;;;;;;;;;1.20;99.90;;;;;;4940096;29;20016;-88
2024/01/27 07:46:43;;;;;;;;;;;2.60;99.90;;;;;;4941272;29;19977;-88
2024/01/27 07:49:19;;;;;;;;;;;;;;;;;;;;;
2024/01/27 07:51:57;;;;;;;;;;;1.30;99.90;;;;;;4940519;29;20339;-87
2024/01/27 07:54:23;;;;;;;;;;;1.40;99.90;;;;;;4942078;29;19918;-86
2024/01/27 08:02:08;;;;;;;;;;;1.30;99.90;;;;;;4956336;29;20371;-89
2024/01/27 08:04:49;;;;;;;;;;;0.70;99.90;;;;;;4957579;29;19973;-89
2024/01/27 08:07:16;;;;;;;;;;;2.10;99.90;;;;;;4941083;29;19929;-88
2024/01/27 08:09:42;;;;;;;;;;;1.20;99.90;;;;;;4940852;29;20290;-88
2024/01/27 08:12:14;;;;;;;;;;;1.50;99.90;;;;;;4939811;29;19929;-89
2024/01/27 08:14:43;;;;;;;;;;;3.00;99.90;;;;;;4941263;29;19952;-89
2024/01/27 08:17:13;;;;;;;;;;;2.90;99.90;;;;;;4940487;29;19934;-88
2024/01/27 08:19:42;;;;;;;;;;;1.70;99.90;;;;;;4940088;29;20028;-88
2024/01/27 08:22:13;;;;;;;;;;;2.70;99.90;;;;;;4940209;29;19926;-88
2024/01/27 08:24:54;;;;;;;;;;;2.10;99.90;;;;;;4940979;29;19922;-89
2024/01/27 08:27:31;;;;;;;;;;;0.50;99.90;;;;;;4957269;28;20006;-88
2024/01/27 08:29:57;;;;;;;;;;;3.60;99.90;;;;;;4940879;29;20473;-89
2024/01/27 08:32:22;;;;;;;;;;;1.50;99.90;;;;;;4940930;29;19926;-89
2024/01/27 08:34:51;;;;;;;;;;;1.60;99.90;;;;;;4940140;29;19926;-90
2024/01/27 08:37:22;;;;;;;;;;;2.00;99.90;;;;;;4939927;29;20548;-88
2024/01/27 08:39:48;;;;;;;;;;;2.30;99.90;;;;;;4956925;29;19923;-89
2024/01/27 08:42:19;;;;;;;;;;;2.10;99.90;;;;;;4956952;28;19923;-96
2024/01/27 08:44:45;;;;;;;;;;;2.00;99.90;;;;;;4935744;29;19923;-91
2024/01/27 08:47:34;;;;;;;;;;;2.30;99.90;;;;;;4939062;29;20037;-88
2024/01/27 08:50:00;;;;;;;;;;;3.10;99.90;;;;;;4931668;29;20367;-86
2024/01/27 08:52:28;;;;;;;;;;;2.10;99.90;;;;;;4928811;29;19986;-85
2024/01/27 08:55:09;;;;;;;;;;;2.20;99.90;;;;;;4933527;29;20013;-85
2024/01/27 08:57:52;;;;;;;;;;;3.00;99.90;;;;;;4928802;29;19934;-85
2024/01/27 09:00:18;;;;;;;;;;;3.70;99.90;;;;;;4938070;29;19928;-86
2024/01/27 09:02:44;;;;;;;;;;;2.50;99.90;;;;;;4955371;29;19922;-86
2024/01/27 09:05:09;;;;;;;;;;;2.50;99.90;;;;;;4939299;29;20009;-87
2024/01/27 09:07:47;;;;;;;;;;;3.50;99.90;;;;;;4939622;29;19977;-87
2024/01/27 09:10:15;;;;;;;;;;;2.60;99.90;;;;;;4955702;29;19949;-87
2024/01/27 09:12:41;;;;;;;;;;;4.10;99.90;;;;;;4936981;29;19922;-86
2024/01/27 09:15:12;;;;;;;;;;;2.50;99.90;;;;;;4938540;29;20331;-87
2024/01/27 09:17:52;;;;;;;;;;;3.10;99.90;;;;;;4939219;29;20345;-86
2024/01/27 09:20:33;;;;;;;;;;;2.60;99.90;;;;;;4955233;29;20351;-87
2024/01/27 09:23:13;;;;;;;;;;;2.80;99.90;;;;;;4938498;29;19930;-87
2024/01/27 09:25:39;;;;;;;;;;;3.00;99.90;;;;;;4939785;29;20065;-87
2024/01/27 09:28:20;;;;;;;;;;;2.80;99.90;;;;;;4939141;29;20009;-87
2024/01/27 09:30:45;;;;;;;;;;;4.50;99.90;;;;;;4938721;29;19922;-87
2024/01/27 09:33:14;;;;;;;;;;;2.90;99.90;;;;;;4936420;29;19922;-87
2024/01/27 09:35:52;;;;;;;;;;;2.70;99.90;;;;;;4935143;29;19926;-87
2024/01/27 09:38:17;;;;;;;;;;;4.80;99.90;;;;;;4923126;23;19924;-87
2024/01/27 09:40:43;;;;;;;;;;;3.30;99.90;;;;;;4854882;29;19931;-87
2024/01/27 09:43:11;;;;;;;;;;;3.40;99.90;;;;;;4876591;29;19923;-86
2024/01/27 09:45:36;;;;;;;;;;;3.50;99.90;;;;;;4862857;29;19928;-87
2024/01/27 09:48:03;;;;;;;;;;;3.50;99.90;;;;;;4877677;29;19931;-87
2024/01/27 09:50:28;;;;;;;;;;;3.60;99.90;;;;;;4861231;29;20007;-87
2024/01/27 09:52:54;;;;;;;;;;;3.90;99.90;;;;;;4961727;23;19967;-88
2024/01/27 09:55:19;;;;;;;;;;;3.70;99.90;;;;;;4907225;29;19927;-87
2024/01/27 09:57:46;;;;;;;;;;;3.80;99.90;;;;;;4907176;29;20060;-87
2024/01/27 10:00:11;;;;;;;;;;;3.80;99.90;;;;;;4910477;29;20134;-87
2024/01/27 10:02:41;;;;;;;;;;;3.90;99.90;;;;;;4917447;29;19923;-87
2024/01/27 10:05:10;;;;;;;;;;;4.00;99.90;;;;;;4909199;29;19918;-87
2024/01/27 10:07:36;;;;;;;;;;;4.10;99.90;;;;;;4915104;29;19923;-87
2024/01/27 10:10:01;;;;;;;;;;;4.10;99.90;;;;;;4916984;29;20284;-87
2024/01/27 10:12:28;;;;;;;;;;;4.20;99.90;;;;;;4911019;29;19930;-87
2024/01/27 10:14:54;;;;;;;;;;;4.20;99.90;;;;;;4911338;29;19927;-88
2024/01/27 10:17:20;;;;;;;;;;;4.30;99.90;;;;;;4907088;29;19929;-87
2024/01/27 10:19:46;;;;;;;;;;;4.40;99.90;;;;;;4909553;29;20005;-87
2024/01/27 10:22:12;;;;;;;;;;;4.50;99.90;;;;;;4915259;29;20017;-87
2024/01/27 10:24:57;;;;;;;;;;;5.20;99.90;;;;;;5071342;27;1980933;-87
2024/01/27 10:27:23;;;;;;;;;;;4.60;99.90;;;;;;5114622;27;19954;-87
2024/01/27 10:29:52;;;;;;;;;;;6.20;99.90;;;;;;5122305;27;19937;-87
2024/01/27 10:32:18;;;;;;;;;;;4.80;99.90;;;;;;5116640;28;20275;-87
2024/01/27 10:34:43;;;;;;;;;;;5.00;99.90;;;;;;5119015;27;19949;-87
2024/01/27 10:37:12;;;;;;;;;;;5.10;99.90;;;;;;5136551;27;20115;-87
2024/01/27 10:39:37;;;;;;;;;;;5.10;99.90;;;;;;5114639;27;19923;-86
2024/01/27 10:42:04;;;;;;;;;;;5.20;99.90;;;;;;5121856;27;19932;-87
2024/01/27 10:44:29;;;;;;;;;;;5.30;99.90;;;;;;5122262;27;19927;-87
2024/01/27 10:46:56;;;;;;;;;;;5.40;99.90;;;;;;5113614;27;19923;-87
2024/01/27 10:49:22;;;;;;;;;;;5.50;99.90;;;;;;5121575;27;20383;-87
2024/01/27 10:51:58;;;;;;;;;;;5.60;99.90;;;;;;5105238;27;19930;-87
2024/01/27 10:54:27;;;;;;;;;;;5.70;99.90;;;;;;5119500;27;19975;-87
2024/01/27 10:56:55;;;;;;;;;;;5.80;99.90;;;;;;5119918;27;19924;-87
2024/01/27 10:59:21;;;;;;;;;;;5.90;99.90;;;;;;5121540;27;19923;-87
2024/01/27 11:01:50;;;;;;;;;;;6.00;99.90;;;;;;5122741;27;19967;-88
2024/01/27 11:04:16;;;;;;;;;;;6.10;99.90;;;;;;5120120;27;19924;-89
2024/01/27 11:06:42;;;;;;;;;;;6.20;99.90;;;;;;5119614;27;20006;-89
2024/01/27 11:09:08;;;;;;;;;;;6.30;99.90;;;;;;5115485;27;19923;-88
2024/01/27 11:11:34;;;;;;;;;;;6.30;99.90;;;;;;5121709;27;19938;-88
2024/01/27 11:14:00;;;;;;;;;;;6.50;99.90;;;;;;5121249;27;19930;-88
2024/01/27 11:16:27;;;;;;;;;;;6.50;99.90;;;;;;5114746;27;20294;-88
2024/01/27 11:18:52;;;;;;;;;;;8.40;99.90;;;;;;5123968;27;19923;-88
2024/01/27 11:21:18;;;;;;;;;;;6.80;99.90;;;;;;5118034;27;19924;-89
2024/01/27 11:23:46;;;;;;;;;;;6.80;99.90;;;;;;5115722;27;20336;-89
2024/01/27 11:26:17;;;;;;;;;;;6.90;99.90;;;;;;5115032;27;19935;-89
2024/01/27 11:28:42;;;;;;;;;;;7.00;99.90;;;;;;5118555;27;20221;-89
2024/01/27 11:31:08;;;;;;;;;;;7.60;99.90;;;;;;5115115;27;20407;-88
2024/01/27 11:33:40;;;;;;;;;;;7.10;99.90;;;;;;5118347;27;19977;-92
2024/01/27 11:36:06;;;;;;;;;;;7.60;99.90;;;;;;5103354;28;19920;-88
2024/01/27 11:38:32;;;;;;;;;;;7.30;99.90;;;;;;5100891;27;19931;-89
2024/01/27 11:40:59;;;;;;;;;;;7.30;99.90;;;;;;5104176;28;19943;-90
2024/01/27 11:43:25;;;;;;;;;;;7.40;99.90;;;;;;5107669;27;19968;-89
2024/01/27 11:45:55;;;;;;;;;;;8.20;99.90;;;;;;5102962;27;19928;-89
2024/01/27 11:48:20;;;;;;;;;;;7.40;99.90;;;;;;5098715;27;19920;-89
2024/01/27 11:50:46;;;;;;;;;;;7.60;99.90;;;;;;5108126;27;19930;-88
2024/01/27 11:53:11;;;;;;;;;;;8.10;99.90;;;;;;5106063;27;19931;-89
2024/01/27 11:55:37;;;;;;;;;;;7.60;99.90;;;;;;5109901;27;19934;-89
2024/01/27 11:58:03;;;;;;;;;;;7.80;99.90;;;;;;5104104;28;19976;-89
2024/01/27 12:00:29;;;;;;;;;;;8.00;99.90;;;;;;5105558;27;20301;-88
2024/01/27 12:02:54;;;;;;;;;;;8.00;99.90;;;;;;5097533;28;20014;-89
2024/01/27 12:05:26;;;;;;;;;;;8.20;99.90;;;;;;5096862;28;19923;-89
2024/01/27 12:07:51;;;;;;;;;;;8.00;99.90;;;;;;5096919;28;20406;-90
2024/01/27 12:10:32;;;;;;;;;;;8.00;99.90;;;;;;5097571;28;19924;-89
2024/01/27 12:13:27;;;;;;;;;;;8.20;99.90;;;;;;5096586;28;20015;-88
2024/01/27 12:15:52;;;;;;;;;;;7.90;99.90;;;;;;5080144;28;19924;-88
2024/01/27 12:18:32;;;;;;;;;;;8.70;99.90;;;;;;5097471;28;19977;-89
2024/01/27 12:20:58;;;;;;;;;;;9.40;99.90;;;;;;5110437;28;19945;-87
2024/01/27 12:30:53;;;;;;;;;;;8.40;99.90;;;;;;5255522;22;19991;-92
2024/01/27 12:33:22;;;;;;;;;;;9.60;99.90;;;;;;5036701;28;19924;-92
2024/01/27 12:35:54;;;;;;;;;;;9.70;99.90;;;;;;5036525;28;19925;-89
2024/01/27 12:38:20;;;;;;;;;;;8.60;99.90;;;;;;5034398;28;19933;-91
2024/01/27 12:40:45;;;;;;;;;;;8.40;99.90;;;;;;5035083;28;19925;-90
2024/01/27 12:43:11;;;;;;;;;;;9.80;99.90;;;;;;5035378;28;19981;-90
2024/01/27 12:45:51;;;;;;;;;;;8.10;99.90;;;;;;5035877;28;20276;-90
2024/01/27 12:48:17;;;;;;;;;;;8.80;99.90;;;;;;5034676;28;20331;-90
2024/01/27 12:50:43;;;;;;;;;;;9.20;99.90;;;;;;5034336;28;19925;-91
2024/01/27 12:53:18;;;;;;;;;;;9.50;99.90;;;;;;5034497;28;20397;-91
2024/01/27 12:55:43;;;;;;;;;;;8.60;99.90;;;;;;5034320;28;20421;-91
2024/01/27 12:58:18;;;;;;;;;;;8.80;99.90;;;;;;5034798;28;19957;-91
2024/01/27 13:01:01;;;;;;;;;;;8.90;99.90;;;;;;5536197;23;20028;-89
2024/01/27 13:07:01;;;;;;;;;;;8.80;99.90;;;;;;5052649;22;20435;-91
2024/01/27 13:09:52;;;;;;;;;;;8.10;99.90;;;;;;5043302;28;20012;-90
2024/01/27 13:12:17;;;;;;;;;;;9.00;99.90;;;;;;5045824;28;20292;-90
2024/01/27 13:14:43;;;;;;;;;;;9.00;99.90;;;;;;5041512;28;19925;-89
2024/01/27 13:17:15;;;;;;;;;;;9.20;99.90;;;;;;5044500;28;19925;-88
2024/01/27 13:20:13;;;;;;;;;;;8.90;99.90;;;;;;5039779;28;20281;-88
2024/01/27 13:22:38;;;;;;;;;;;9.00;99.90;;;;;;5041779;28;19932;-88
2024/01/27 13:25:05;;;;;;;;;;;7.90;99.90;;;;;;5040543;28;19925;-88
2024/01/27 13:27:40;;;;;;;;;;;9.10;99.90;;;;;;5043665;28;20143;-88
2024/01/27 13:30:12;;;;;;;;;;;9.10;99.90;;;;;;5040659;28;20012;-88
2024/01/27 13:33:03;;;;;;;;;;;9.00;99.90;;;;;;5043288;28;19932;-88
2024/01/27 13:35:28;;;;;;;;;;;9.10;99.90;;;;;;5042840;28;20841;-89
2024/01/27 13:37:54;;;;;;;;;;;9.00;99.90;;;;;;5042913;28;19963;-88
2024/01/27 13:40:23;;;;;;;;;;;10.50;99.90;;;;;;5043064;28;20674;-92
2024/01/27 13:42:52;;;;;;;;;;;9.10;99.90;;;;;;5051502;28;20395;-89
2024/01/27 13:45:33;;;;;;;;;;;9.80;99.90;;;;;;5047657;28;20285;-90
2024/01/27 13:50:52;;;;;;;;;;;9.00;99.90;;;;;;5110489;22;20296;-92
2024/01/27 13:53:18;;;;;;;;;;;8.20;99.90;;;;;;5035990;22;19967;-91
2024/01/27 13:55:45;;;;;;;;;;;9.10;99.90;;;;;;5036621;22;19968;-90
2024/01/27 13:58:32;;;;;;;;;;;8.10;99.90;;;;;;5014110;28;19925;-90
2024/01/27 14:01:12;;;;;;;;;;;9.20;99.90;;;;;;5005420;28;20365;-91
2024/01/27 14:09:25;;;;;;;12.80;3.00;;;9.90;99.90;;;;;;5069374;28;20063;-88
2024/01/27 14:11:51;;;;;;;14.48;3.00;;;9.00;99.90;;;;;;5067800;28;20407;-90
2024/01/27 14:14:22;;;;;;;15.43;3.70;;;8.90;99.90;;;;;;5068366;28;20119;-89
2024/01/27 14:16:57;;;;;;;11.97;2.90;;;10.40;99.90;;;;;;5095755;22;20063;-87
2024/01/27 14:19:32;;;;;;;14.37;3.80;;;9.00;99.90;;;;;;5109075;28;20410;-89
2024/01/27 14:21:58;;;;;;;17.92;2.97;;;8.70;99.90;;;;;;5108973;28;20056;-88
2024/01/27 14:24:27;;;;;;;14.52;3.45;;;8.70;99.90;;;;;;5108427;28;20544;-92
2024/01/27 14:26:55;;;;;;;10.57;3.10;;;8.60;99.90;;;;;;5108404;28;20525;-88
2024/01/27 14:29:21;;;;;;;13.18;3.03;;;8.70;99.90;;;;;;5109412;28;20518;-86
2024/01/27 14:31:55;;;;;;;13.18;2.88;;;10.10;99.90;;;;;;5109292;28;20127;-86
2024/01/27 14:34:56;;;;;;;;;;;;;;;;;;;;;
2024/01/27 14:37:48;;;;;;;11.05;3.00;;;7.90;99.90;;;;;;5109305;28;20063;-86
2024/01/27 14:40:32;;;;;;;14.52;3.20;;;8.30;99.90;;;;;;5107260;28;20040;-86
2024/01/27 14:43:13;;;;;;;;;;;9.20;99.90;;;;;;5108383;28;20043;-86
2024/01/27 14:45:50;;;;;;;15.93;3.10;;;7.90;99.90;;;;;;5107018;28;19959;-86
2024/01/27 14:48:19;;;;;;;13.45;3.33;;;9.10;99.90;;;;;;5107507;28;20059;-86
2024/01/27 14:50:58;;;;;;;;;;;;;;;;;;;;;
2024/01/27 14:53:36;;;;;;;11.98;3.33;;;9.20;99.90;;;;;;5107821;28;20127;-86
2024/01/27 14:56:05;;;;;;;13.25;3.95;;;9.60;99.90;;;;;;5107995;28;20459;-86
2024/01/27 14:58:43;;;;;;;14.13;3.80;;;8.80;99.90;;;;;;5124979;28;20128;-86
2024/01/27 15:01:08;;;;;;;18.02;3.78;;;8.60;99.90;;;;;;5107203;28;20047;-86
2024/01/27 15:03:35;;;;;;;15.57;3.50;;;7.40;99.90;;;;;;5107770;28;20043;-86
2024/01/27 15:06:01;;;;;;;13.50;3.67;;;7.40;99.90;;;;;;5107821;28;20169;-86
2024/01/27 15:08:27;;;;;;;15.43;4.65;;;7.40;99.90;;;;;;5107255;28;20051;-86
2024/01/27 15:10:53;;;;;;;15.00;3.67;;;7.40;99.90;;;;;;5107526;28;20051;-85
2024/01/27 15:13:23;;;;;;;12.15;3.55;;;8.00;99.90;;;;;;5108274;28;20048;-86
2024/01/27 15:15:49;;;;;;;15.88;4.05;;;7.20;99.90;;;;;;5096511;28;20043;-85
2024/01/27 15:18:16;;;;;;;15.60;3.65;;;7.70;99.90;;;;;;5094352;28;20051;-86
2024/01/27 15:20:42;;;;;;;12.45;4.15;;;7.10;99.90;;;;;;5093431;28;20143;-85
2024/01/27 15:23:16;;;;;;;14.45;3.58;;;7.10;99.90;;;;;;5093192;28;20039;-86
2024/01/27 15:25:51;;;;;;;15.05;3.90;;;7.70;99.90;;;;;;5094321;28;20047;-86
2024/01/27 15:28:44;;;;;;;13.07;4.05;;;8.00;99.90;;;;;;5092481;28;20119;-86
2024/01/27 15:31:30;;;;;;;11.93;4.07;;;7.20;99.90;;;;;;5092254;28;20484;-88
2024/01/27 15:34:03;;;;;;;15.88;4.70;;;6.80;99.90;;;;;;5088305;28;20048;-87
2024/01/27 15:36:34;;;;;;;13.50;4.03;;;6.80;99.90;;;;;;5092961;28;20096;-89
2024/01/27 15:39:01;;;;;;;15.85;3.90;;;8.30;99.90;;;;;;5092757;28;20113;-88
2024/01/27 15:41:26;;;;;;;14.07;4.07;;;6.10;99.90;;;;;;5092750;28;20399;-86
2024/01/27 15:43:52;;;;;;;18.27;4.60;;;7.50;99.90;;;;;;5091841;28;20048;-87
2024/01/27 15:46:18;;;;;;;15.23;3.95;;;6.50;99.90;;;;;;5084481;22;20050;-86
2024/01/27 15:48:43;;;;;;;16.77;4.43;;;6.50;99.90;;;;;;5067184;28;20052;-87
2024/01/27 15:51:09;;;;;;;20.83;4.53;;;6.40;99.90;;;;;;5057012;28;20480;-86
2024/01/27 15:53:35;;;;;;;19.88;4.70;;;6.30;99.90;;;;;;5073167;28;20127;-86
2024/01/27 15:56:00;;;;;;;13.30;4.17;;;6.20;99.90;;;;;;5072629;28;20044;-86
2024/01/27 15:58:26;;;;;;;16.07;4.37;;;6.10;99.90;;;;;;5073153;28;20110;-85
2024/01/27 16:00:51;;;;;;;15.67;4.90;;;7.50;99.90;;;;;;5072740;28;20123;-86
2024/01/27 16:03:17;;;;;;;13.97;4.03;;;5.90;99.90;;;;;;5074764;28;20070;-86
2024/01/27 16:05:43;;;;;;;15.70;3.90;;;5.80;99.90;;;;;;5091879;28;20059;-85
2024/01/27 16:08:10;;;;;;;13.37;3.80;;;5.70;99.90;;;;;;5072562;28;20044;-85
2024/01/27 16:10:37;;;;;;;13.53;4.17;;;5.60;99.90;;;;;;5071815;28;20040;-86
2024/01/27 16:13:03;;;;;;;14.17;4.43;;;5.50;99.90;;;;;;5072444;28;20043;-86
2024/01/27 16:15:28;;;;;;;13.63;4.23;;;5.40;99.90;;;;;;5052604;28;20131;-85
2024/01/27 16:17:54;;;;;;;12.67;3.77;;;5.30;99.90;;;;;;5051830;28;20133;-89
2024/01/27 16:20:19;;;;;;;17.17;5.10;;;5.20;99.90;;;;;;5071725;28;20546;-85
2024/01/27 16:22:45;;;;;;;19.50;5.23;;;5.10;99.90;;;;;;5073060;28;20048;-86
2024/01/27 16:25:16;;;;;;;16.43;5.20;;;5.00;99.90;;;;;;5105312;22;20052;-85
2024/01/27 16:45:00;;;;;;;15.90;4.93;;;4.10;99.90;;;;;;4992804;28;20488;-91